Time;durP1;ratioP1;P1;durP2;ratioP2;P2;SDS_P1;SDS_P2;PMS_P1;PMS_P2;Temp;Humidity;BMP_temperature;BMP_pressure;BME280_temperature;BME280_humidity;BME280_pressure;Samples;Min_cycle;Max_cycle;Signal;HPM_P1;HPM_P2
2022/09/19 00:01:40;;;;;;;4.18;3.22;;;;;;;27.91;40.54;101513.84;4188560;28;20476;-65
2022/09/19 00:03:44;;;;;;;4.25;3.85;;;;;;;27.84;40.19;101497.38;4199806;28;20045;-65
2022/09/19 00:05:46;;;;;;;5.13;3.28;;;;;;;27.92;40.24;101515.50;4198803;28;20442;-65
2022/09/19 00:07:48;;;;;;;4.38;3.53;;;;;;;27.92;40.48;101519.13;4188773;28;20357;-65
2022/09/19 00:09:52;;;;;;;12.38;3.97;;;;;;;27.90;40.83;101512.97;4184016;28;20443;-64
2022/09/19 00:11:55;;;;;;;13.18;3.65;;;;;;;27.91;41.41;101519.47;4194359;28;20090;-64
2022/09/19 00:13:59;;;;;;;8.23;3.47;;;;;;;27.84;41.46;101514.25;4187402;28;20451;-64
2022/09/19 00:16:01;;;;;;;16.88;4.07;;;;;;;27.75;41.37;101502.91;4183525;28;20087;-63
2022/09/19 00:18:03;;;;;;;8.65;4.05;;;;;;;27.86;41.82;101523.22;4189197;28;20033;-63
2022/09/19 00:20:06;;;;;;;11.48;3.58;;;;;;;27.79;41.17;101518.00;4192895;28;21391;-63
2022/09/19 00:22:17;;;;;;;11.05;3.65;;;;;;;27.88;41.58;101528.50;4182313;28;20038;-63
2022/09/19 00:26:39;;;;;;;6.13;3.55;;;;;;;27.91;41.43;101531.53;4184033;28;20063;-63
2022/09/19 00:28:45;;;;;;;9.43;3.50;;;;;;;27.74;40.90;101508.84;4183877;28;20087;-63
2022/09/19 00:30:46;;;;;;;9.57;3.40;;;;;;;27.90;41.48;101535.47;4183813;28;20057;-64
2022/09/19 00:32:51;;;;;;;10.90;3.72;;;;;;;27.89;41.42;101538.63;4194071;28;20037;-65
2022/09/19 00:34:55;;;;;;;11.35;3.53;;;;;;;27.86;41.65;101546.53;4184953;28;20045;-64
2022/09/19 00:36:57;;;;;;;13.55;3.90;;;;;;;27.85;41.89;101544.03;4181942;28;20562;-65
2022/09/19 00:38:59;;;;;;;12.40;3.95;;;;;;;27.86;42.23;101542.91;4190207;28;20102;-64
2022/09/19 00:41:00;;;;;;;11.07;3.42;;;;;;;27.87;42.29;101541.75;4184109;28;20435;-64
2022/09/19 00:43:05;;;;;;;12.95;3.60;;;;;;;27.85;41.86;101541.22;4187331;28;20106;-64
2022/09/19 00:45:13;;;;;;;7.55;3.55;;;;;;;27.86;41.78;101535.28;4193633;28;20053;-64
2022/09/19 00:47:21;;;;;;;8.60;3.40;;;;;;;27.86;42.28;101543.72;4191649;28;20049;-65
2022/09/19 00:49:25;;;;;;;17.30;4.00;;;;;;;27.71;42.47;101510.25;4191733;28;20044;-64
2022/09/19 00:51:31;;;;;;;12.98;4.03;;;;;;;27.90;41.94;101538.28;4193711;28;20086;-63
2022/09/19 00:53:33;;;;;;;9.52;3.90;;;;;;;27.59;42.19;101484.69;4185873;28;20106;-64
2022/09/19 00:55:36;;;;;;;9.18;3.63;;;;;;;27.77;41.94;101520.31;4195851;28;20102;-64
2022/09/19 00:57:51;;;;;;;8.02;3.67;;;;;;;27.78;42.30;101521.97;4192864;28;20469;-64
2022/09/19 00:59:53;;;;;;;7.20;3.75;;;;;;;27.82;42.50;101528.63;4186620;28;20040;-64
2022/09/19 01:02:04;;;;;;;6.35;3.40;;;;;;;27.79;42.27;101523.63;4183134;28;20036;-64
2022/09/19 01:04:16;;;;;;;11.02;3.47;;;;;;;27.89;42.24;101544.25;4190618;28;20169;-64
2022/09/19 01:06:20;;;;;;;7.88;3.63;;;;;;;27.92;42.38;101543.63;4190544;28;20547;-63
2022/09/19 01:08:30;;;;;;;14.55;4.38;;;;;;;27.93;42.33;101539.66;4184881;28;20044;-64
2022/09/19 01:10:42;;;;;;;11.20;3.80;;;;;;;27.89;42.72;101544.25;4182694;28;20041;-63
2022/09/19 01:13:09;;;;;;;8.38;3.58;;;;;;;27.90;42.78;101543.09;4191556;28;20446;-63
2022/09/19 01:15:38;;;;;;;13.93;4.50;;;;;;;27.90;42.41;101546.72;4183044;28;20044;-63
2022/09/19 01:17:47;;;;;;;15.07;3.70;;;;;;;27.93;42.80;101551.72;4187150;28;20045;-64
2022/09/19 01:20:13;;;;;;;6.28;3.75;;;;;;;27.91;42.48;101550.41;4186270;28;20480;-64
2022/09/19 01:22:47;;;;;;;6.53;3.53;;;;;;;27.90;42.58;101557.16;4195144;28;20483;-63
2022/09/19 01:24:59;;;;;;;9.88;3.58;;;;;;;27.94;42.76;101563.81;4190167;28;20044;-64
2022/09/19 01:27:24;;;;;;;7.82;3.95;;;;;;;27.89;42.93;101561.13;4199352;28;20093;-65
2022/09/19 01:29:37;;;;;;;9.15;3.45;;;;;;;27.91;42.99;101556.84;4191556;28;20045;-64
2022/09/19 01:31:45;;;;;;;9.00;3.60;;;;;;;27.95;42.66;101565.47;4184693;28;20041;-64
2022/09/19 01:33:53;;;;;;;10.85;4.05;;;;;;;27.92;43.23;101552.06;4188776;28;20099;-64
2022/09/19 01:35:57;;;;;;;8.10;3.95;;;;;;;27.90;43.26;101557.97;4197092;28;20110;-64
2022/09/19 01:38:12;;;;;;;5.53;3.30;;;;;;;27.89;43.22;101558.31;4194876;28;20094;-63
2022/09/19 01:40:17;;;;;;;5.63;3.40;;;;;;;27.90;43.09;101555.16;4182889;28;20036;-63
2022/09/19 01:42:22;;;;;;;7.15;3.83;;;;;;;27.88;43.08;101543.41;4182397;28;20443;-64
2022/09/19 01:44:25;;;;;;;5.20;3.75;;;;;;;27.92;43.26;101547.25;4182732;28;20045;-65
2022/09/19 01:46:36;;;;;;;11.65;4.22;;;;;;;27.95;43.03;101548.59;4187326;28;20476;-64
2022/09/19 01:48:59;;;;;;;10.52;4.57;;;;;;;27.92;43.42;101543.63;4184781;28;20041;-64
2022/09/19 01:51:03;;;;;;;8.73;3.90;;;;;;;27.95;43.07;101537.34;4184549;28;20044;-64
2022/09/19 01:53:29;;;;;;;8.85;3.55;;;;;;;27.93;43.36;101531.22;4185211;28;20098;-64
2022/09/19 01:55:39;;;;;;;;;;;;;;;27.92;43.40;101538.00;4189900;28;20156;-61
2022/09/19 01:58:04;;;;;;;7.50;3.60;;;;;;;27.99;43.35;101533.59;4198926;28;19920;-63
2022/09/19 02:00:16;;;;;;;10.73;3.88;;;;;;;27.97;43.50;101535.06;4185363;28;20041;-63
2022/09/19 02:02:34;;;;;;;8.90;3.78;;;;;;;27.99;43.40;101538.38;4192449;28;20548;-63
2022/09/19 02:05:08;;;;;;;7.45;3.65;;;;;;;27.96;43.81;101533.41;4197996;28;20110;-65
2022/09/19 02:08:04;;;;;;;9.75;3.45;;;;;;;27.95;43.53;101538.19;4175541;28;20456;-63
2022/09/19 02:10:19;;;;;;;8.80;3.67;;;;;;;27.61;43.37;101476.75;4141445;28;20068;-63
2022/09/19 02:12:23;;;;;;;;;;;;;;;28.00;43.54;101537.25;4138335;28;20560;-64
2022/09/19 02:14:30;;;;;;;83.15;9.60;;;;;;;28.03;43.65;101533.78;4153370;28;19924;-64
2022/09/19 02:17:03;;;;;;;16.23;3.95;;;;;;;28.06;43.50;101533.16;4186163;28;20136;-63
2022/09/19 02:19:09;;;;;;;16.10;4.30;;;;;;;28.08;43.78;101539.31;4183865;28;20040;-63
2022/09/19 02:21:19;;;;;;;10.10;4.10;;;;;;;28.06;43.79;101533.16;4191615;28;20090;-64
2022/09/19 02:23:28;;;;;;;9.20;3.90;;;;;;;28.02;43.83;101518.91;4194979;28;20033;-63
2022/09/19 02:25:33;;;;;;;12.95;3.85;;;;;;;28.04;43.80;101527.88;4184426;28;20076;-64
2022/09/19 02:27:49;;;;;;;7.72;3.85;;;;;;;28.02;43.98;101532.13;4182434;28;20438;-64
2022/09/19 02:29:59;;;;;;;13.15;4.13;;;;;;;28.04;43.99;101529.81;4184123;28;20495;-64
2022/09/19 02:32:02;;;;;;;13.80;4.13;;;;;;;28.06;43.89;101527.56;4180984;28;20427;-65
2022/09/19 02:34:06;;;;;;;12.30;4.32;;;;;;;28.07;43.98;101529.22;4185509;28;20446;-68
2022/09/19 02:36:24;;;;;;;9.27;4.05;;;;;;;28.04;44.14;101529.81;4189841;28;20041;-66
2022/09/19 02:38:33;;;;;;;10.48;4.65;;;;;;;28.07;43.84;101524.41;4181352;28;20041;-64
2022/09/19 02:40:45;;;;;;;7.35;3.85;;;;;;;27.96;44.18;101499.66;4187295;28;20032;-64
2022/09/19 02:42:47;;;;;;;17.20;4.57;;;;;;;28.09;43.65;101521.31;4182141;28;20349;-68
2022/09/19 02:44:57;;;;;;;11.68;4.15;;;;;;;28.08;44.07;101526.06;4196326;28;20033;-64
2022/09/19 02:47:21;;;;;;;6.10;4.13;;;;;;;28.09;44.01;101521.31;4181699;28;20114;-64
2022/09/19 02:49:38;;;;;;;7.45;3.95;;;;;;;28.09;43.97;101521.31;4187331;28;20258;-64
2022/09/19 02:51:55;;;;;;;9.50;3.95;;;;;;;28.11;44.02;101524.63;4192273;28;20106;-64
2022/09/19 02:54:05;;;;;;;7.03;4.68;;;;;;;28.11;43.85;101519.81;4182286;28;20099;-64
2022/09/19 02:56:07;;;;;;;8.27;4.05;;;;;;;28.12;43.84;101521.47;4182283;28;20369;-65
2022/09/19 02:58:14;;;;;;;8.00;4.72;;;;;;;28.08;44.03;101520.44;4181953;28;20496;-64
2022/09/19 03:00:16;;;;;;;8.75;4.07;;;;;;;28.08;44.22;101517.63;4191792;28;20041;-65
2022/09/19 03:02:34;;;;;;;7.00;4.47;;;;;;;28.11;43.70;101524.63;4180936;28;20041;-65
2022/09/19 03:04:44;;;;;;;7.75;4.25;;;;;;;28.12;44.13;101523.47;4181216;28;20044;-64
2022/09/19 03:07:27;;;;;;;10.38;4.47;;;;;;;28.08;44.23;101525.22;4196701;28;20110;-65
2022/09/19 03:09:30;;;;;;;7.32;4.80;;;;;;;28.11;44.32;101519.81;4187792;28;20458;-65
2022/09/19 03:11:34;;;;;;;6.32;4.30;;;;;;;28.12;44.11;101526.28;4195367;28;20439;-65
2022/09/19 03:13:40;;;;;;;13.30;4.70;;;;;;;28.06;43.93;101516.28;4193646;28;20476;-65
2022/09/19 03:15:51;;;;;;;8.73;3.97;;;;;;;28.11;44.17;101513.38;4187283;28;20099;-65
2022/09/19 03:17:54;;;;;;;6.72;4.25;;;;;;;28.13;44.42;101522.31;4186192;28;20040;-65
2022/09/19 03:19:57;;;;;;;6.40;4.18;;;;;;;28.14;44.00;101524.00;4195189;28;20361;-65
2022/09/19 03:22:00;;;;;;;7.15;4.20;;;;;;;28.13;44.23;101519.50;4179730;28;20111;-65
2022/09/19 03:24:03;;;;;;;7.60;4.43;;;;;;;28.05;44.06;101514.63;4181729;28;20044;-63
2022/09/19 03:26:10;;;;;;;11.60;4.78;;;;;;;28.15;44.13;101531.28;4197466;28;20086;-63
2022/09/19 03:28:11;;;;;;;15.07;4.75;;;;;;;28.18;44.23;101522.22;4185816;28;20075;-62
2022/09/19 03:30:13;;;;;;;10.73;4.90;;;;;;;28.04;44.41;101504.50;4195983;28;20438;-63
2022/09/19 03:32:14;;;;;;;10.73;4.78;;;;;;;28.17;44.24;101523.34;4191642;28;20106;-63
2022/09/19 03:34:17;;;;;;;12.85;4.45;;;;;;;28.17;44.39;101523.34;4189170;28;20091;-63
2022/09/19 03:36:18;;;;;;;8.02;4.60;;;;;;;28.19;44.16;101525.84;4180664;28;20053;-62
2022/09/19 03:38:21;;;;;;;5.95;3.95;;;;;;;28.21;44.08;101523.53;4184878;28;20053;-63
2022/09/19 03:40:22;;;;;;;7.20;4.10;;;;;;;28.21;44.35;101518.75;4179866;28;20037;-63
2022/09/19 03:42:24;;;;;;;6.35;4.30;;;;;;;28.23;44.25;101521.25;4179116;28;20041;-62
2022/09/19 03:44:25;;;;;;;5.03;3.85;;;;;;;28.02;44.35;101487.97;4183063;28;20037;-63
2022/09/19 03:46:31;;;;;;;8.63;4.40;;;;;;;28.20;44.28;101519.91;4180904;28;20036;-63
2022/09/19 03:48:32;;;;;;;6.57;4.13;;;;;;;28.24;44.18;101529.38;4186848;28;20087;-63
2022/09/19 03:50:33;;;;;;;6.43;3.92;;;;;;;28.23;44.38;101522.09;4187156;28;20033;-65
2022/09/19 03:52:34;;;;;;;6.53;4.05;;;;;;;28.27;44.49;101525.94;4180119;28;20099;-64
2022/09/19 03:54:36;;;;;;;8.70;3.85;;;;;;;28.22;44.65;101509.16;4187493;28;20044;-64
2022/09/19 03:56:37;;;;;;;9.77;4.53;;;;;;;28.10;44.54;101486.38;4191697;28;20115;-65
2022/09/19 03:58:40;;;;;;;8.60;4.13;;;;;;;28.28;44.46;101519.16;4180663;28;20449;-64
2022/09/19 04:00:41;;;;;;;12.40;3.80;;;;;;;28.27;44.73;101516.63;4185803;28;20036;-64
2022/09/19 04:02:43;;;;;;;8.50;4.22;;;;;;;28.26;44.95;101520.59;4194846;28;20037;-64
2022/09/19 04:04:44;;;;;;;13.40;4.85;;;;;;;28.25;44.90;101522.59;4196203;28;20377;-64
2022/09/19 04:06:49;;;;;;;8.35;3.97;;;;;;;28.22;45.13;101520.41;4197034;28;20098;-64
2022/09/19 04:08:50;;;;;;;12.10;4.47;;;;;;;28.26;44.66;101520.59;4196948;28;20045;-64
2022/09/19 04:10:52;;;;;;;8.50;4.10;;;;;;;28.27;44.86;101523.13;4196533;28;20040;-64
2022/09/19 04:12:56;;;;;;;8.65;4.13;;;;;;;28.28;45.23;101521.13;4196676;28;20723;-64
2022/09/19 04:14:57;;;;;;;9.77;4.53;;;;;;;28.28;44.46;101521.97;4195985;28;20468;-64
2022/09/19 04:16:59;;;;;;;10.07;4.43;;;;;;;28.28;45.04;101519.16;4195916;28;20052;-64
2022/09/19 04:19:00;;;;;;;7.82;4.43;;;;;;;28.29;45.14;101520.81;4196899;28;20044;-65
2022/09/19 04:21:04;;;;;;;7.85;4.25;;;;;;;28.29;45.13;101514.34;4192331;28;20094;-64
2022/09/19 04:23:06;;;;;;;5.45;3.80;;;;;;;28.30;45.14;101516.00;4180490;28;20040;-64
2022/09/19 04:25:14;;;;;;;5.63;3.58;;;;;;;28.29;45.04;101515.19;4179529;28;20044;-64
2022/09/19 04:27:16;;;;;;;7.68;4.22;;;;;;;28.29;44.96;101517.16;4180429;28;20460;-63
2022/09/19 04:29:20;;;;;;;9.90;4.25;;;;;;;28.20;44.96;101496.56;4179639;28;20037;-63
2022/09/19 04:31:22;;;;;;;7.25;4.03;;;;;;;28.30;45.16;101508.41;4179089;28;20426;-63
2022/09/19 04:33:26;;;;;;;7.80;3.95;;;;;;;28.31;45.24;101507.25;4179970;28;20037;-63
2022/09/19 04:35:34;;;;;;;5.25;3.78;;;;;;;28.22;44.93;101495.06;4180084;28;20063;-63
2022/09/19 04:37:36;;;;;;;7.15;4.25;;;;;;;28.28;45.04;101496.63;4180844;28;20094;-63
2022/09/19 04:39:37;;;;;;;10.02;4.07;;;;;;;28.28;45.01;101496.63;4185013;28;20167;-64
2022/09/19 04:41:38;;;;;;;7.03;4.18;;;;;;;28.30;45.10;101502.78;4181044;28;20106;-64
2022/09/19 04:43:40;;;;;;;6.50;3.78;;;;;;;28.14;44.91;101469.69;4182338;28;20106;-64
2022/09/19 04:45:45;;;;;;;8.48;4.32;;;;;;;28.32;44.78;101496.84;4182908;28;20101;-65
2022/09/19 04:47:59;;;;;;;4.30;3.83;;;;;;;28.32;45.25;101503.31;4183061;28;20381;-65
2022/09/19 04:50:00;;;;;;;10.45;4.45;;;;;;;28.33;45.50;101493.69;4192979;28;20546;-65
2022/09/19 04:52:03;;;;;;;7.13;4.05;;;;;;;28.28;45.19;101490.19;4199072;28;20040;-65
2022/09/19 04:54:05;;;;;;;5.70;4.00;;;;;;;28.31;45.17;101493.16;4199445;28;20789;-65
2022/09/19 04:56:07;;;;;;;6.32;3.90;;;;;;;28.32;45.29;101494.03;4185243;28;20057;-65
2022/09/19 04:58:08;;;;;;;7.47;4.38;;;;;;;28.26;45.62;101482.03;4183312;28;20045;-65
2022/09/19 05:00:10;;;;;;;5.93;3.97;;;;;;;28.29;45.50;101489.84;4182788;28;20546;-65
2022/09/19 05:02:14;;;;;;;9.20;4.28;;;;;;;28.29;45.54;101492.66;4182827;28;20095;-65
2022/09/19 05:04:17;;;;;;;6.70;4.20;;;;;;;28.28;45.56;101484.56;4182726;28;20099;-65
2022/09/19 05:06:28;;;;;;;7.75;4.32;;;;;;;28.31;45.48;101484.72;4181624;28;20562;-67
2022/09/19 05:08:32;;;;;;;5.57;3.72;;;;;;;27.91;45.19;101419.03;4182431;28;20045;-65
2022/09/19 05:10:33;;;;;;;6.82;4.35;;;;;;;28.30;45.05;101477.44;4182926;28;20092;-65
2022/09/19 05:12:34;;;;;;;6.28;4.38;;;;;;;28.33;45.11;101471.19;4186862;28;20102;-64
2022/09/19 05:14:36;;;;;;;9.07;3.92;;;;;;;28.32;45.46;101469.53;4198187;28;20040;-64
2022/09/19 05:16:37;;;;;;;6.70;3.80;;;;;;;28.34;45.07;101472.88;4191986;28;20183;-64
2022/09/19 05:18:41;;;;;;;5.80;4.15;;;;;;;28.34;45.70;101475.69;4182544;28;20489;-65
2022/09/19 05:20:43;;;;;;;8.82;4.20;;;;;;;28.33;45.38;101476.81;4182775;28;20090;-64
2022/09/19 05:22:44;;;;;;;5.50;3.83;;;;;;;28.34;45.37;101478.50;4182545;28;20037;-64
2022/09/19 05:24:45;;;;;;;5.95;3.63;;;;;;;28.36;45.46;101475.34;4182270;28;20045;-64
2022/09/19 05:26:49;;;;;;;6.95;4.05;;;;;;;28.36;45.76;101469.72;4188200;28;20446;-65
2022/09/19 05:28:50;;;;;;;5.63;3.90;;;;;;;28.34;45.43;101472.00;4195315;28;20037;-64
2022/09/19 05:30:54;;;;;;;5.07;3.92;;;;;;;28.35;45.08;101468.91;4182333;28;20324;-65
2022/09/19 05:32:55;;;;;;;4.40;3.88;;;;;;;28.35;45.57;101466.09;4184819;28;20045;-64
2022/09/19 05:34:56;;;;;;;6.05;4.28;;;;;;;28.38;45.16;101466.63;4184342;28;20017;-64
2022/09/19 05:36:58;;;;;;;6.13;3.67;;;;;;;28.38;45.45;101458.16;4191651;28;20048;-64
2022/09/19 05:38:59;;;;;;;8.10;4.18;;;;;;;28.36;45.67;101459.31;4198379;28;20040;-65
2022/09/19 05:41:05;;;;;;;7.22;3.28;;;;;;;28.38;45.27;101466.63;4189434;28;20110;-64
2022/09/19 05:43:06;;;;;;;7.25;4.30;;;;;;;28.38;44.93;101455.34;4181462;28;20047;-64
2022/09/19 05:45:13;;;;;;;5.93;4.40;;;;;;;28.40;44.52;101453.88;4182166;28;20094;-65
2022/09/19 05:47:15;;;;;;;7.82;4.40;;;;;;;28.39;44.44;101448.56;4197010;28;20040;-64
2022/09/19 05:49:16;;;;;;;5.53;3.90;;;;;;;28.43;44.44;101452.41;4198595;28;20040;-65
2022/09/19 05:51:17;;;;;;;6.03;4.05;;;;;;;28.42;44.72;101451.56;4197371;28;20484;-66
2022/09/19 05:55:44;;;;;;;4.82;4.07;;;;;;;28.44;44.59;101443.63;4182515;28;20535;-65
2022/09/19 05:57:53;;;;;;;7.00;4.03;;;;;;;28.43;44.63;101439.16;4196570;28;20037;-66
2022/09/19 05:59:56;;;;;;;7.22;4.13;;;;;;;28.43;44.40;101441.16;4198103;28;20036;-66
2022/09/19 06:02:02;;;;;;;4.20;3.80;;;;;;;28.43;44.58;101446.78;4198071;28;20480;-64
2022/09/19 06:04:04;;;;;;;6.57;4.45;;;;;;;28.41;44.55;101435.00;4197904;28;20033;-64
2022/09/19 06:06:13;;;;;;;7.13;3.95;;;;;;;28.44;44.68;101445.63;4198482;28;20157;-64
2022/09/19 06:08:16;;;;;;;5.65;4.13;;;;;;;28.45;44.36;101450.09;4186262;28;20099;-64
2022/09/19 06:10:20;;;;;;;4.70;4.07;;;;;;;28.45;44.56;101439.66;4181371;28;20091;-66
2022/09/19 06:12:24;;;;;;;6.38;4.40;;;;;;;28.46;44.53;101446.16;4187028;28;20089;-65
2022/09/19 06:14:27;;;;;;;6.03;4.23;;;;;;;28.46;44.53;101444.16;4187349;28;20037;-65
2022/09/19 06:16:28;;;;;;;5.65;4.07;;;;;;;28.42;44.75;101433.88;4181944;28;20041;-66
2022/09/19 06:18:29;;;;;;;6.35;4.05;;;;;;;28.47;44.58;101442.16;4192559;28;20045;-64
2022/09/19 06:20:31;;;;;;;5.00;4.18;;;;;;;28.48;44.67;101443.81;4197150;28;20040;-64
2022/09/19 06:22:32;;;;;;;5.03;4.20;;;;;;;28.47;44.45;101437.38;4197610;28;20079;-65
2022/09/19 06:24:36;;;;;;;4.60;4.10;;;;;;;28.48;44.57;101449.47;4198237;28;20483;-66
2022/09/19 06:26:38;;;;;;;5.43;4.07;;;;;;;28.48;44.67;101444.66;4198236;28;20122;-65
2022/09/19 06:28:39;;;;;;;5.68;4.00;;;;;;;28.48;44.85;101443.81;4198692;28;20471;-65
2022/09/19 06:30:40;;;;;;;6.45;4.30;;;;;;;28.36;44.48;101425.53;4202628;28;20040;-65
2022/09/19 06:32:44;;;;;;;5.22;3.72;;;;;;;28.47;44.58;101439.34;4197734;28;20040;-65
2022/09/19 06:34:46;;;;;;;5.13;4.00;;;;;;;28.47;44.79;101442.16;4196695;28;20036;-65
2022/09/19 06:36:47;;;;;;;5.13;3.75;;;;;;;28.45;44.81;101427.56;4197244;28;20086;-65
2022/09/19 06:38:52;;;;;;;6.72;3.80;;;;;;;28.47;44.79;101436.53;4197751;28;20090;-66
2022/09/19 06:40:53;;;;;;;5.55;4.20;;;;;;;28.28;44.62;101412.22;4197300;28;20093;-65
2022/09/19 06:43:02;;;;;;;5.47;3.70;;;;;;;28.37;44.90;101423.56;4188517;28;20037;-65
2022/09/19 06:45:06;;;;;;;7.43;4.20;;;;;;;28.47;44.56;101433.72;4184209;28;20494;-65
2022/09/19 06:47:07;;;;;;;6.20;3.97;;;;;;;28.47;44.73;101434.56;4192157;28;20094;-65
2022/09/19 06:49:11;;;;;;;4.85;3.85;;;;;;;28.48;44.85;101438.19;4197780;28;20273;-65
2022/09/19 06:51:13;;;;;;;6.23;4.53;;;;;;;28.48;44.87;101438.19;4185981;28;20041;-66
2022/09/19 06:53:26;;;;;;;4.63;3.70;;;;;;;28.34;44.95;101422.22;4181100;28;20083;-65
2022/09/19 06:55:30;;;;;;;4.45;3.80;;;;;;;28.46;44.59;101434.88;4197610;28;20420;-65
2022/09/19 06:57:32;;;;;;;6.95;4.30;;;;;;;28.49;44.67;101440.69;4191566;28;20488;-66
2022/09/19 06:59:33;;;;;;;4.30;3.90;;;;;;;28.49;44.58;101439.84;4197539;28;20036;-64
2022/09/19 07:01:34;;;;;;;4.00;3.60;;;;;;;28.48;44.92;101435.38;4196758;28;20036;-65
2022/09/19 07:03:36;;;;;;;7.80;3.92;;;;;;;28.47;44.69;101436.53;4184501;28;20103;-65
2022/09/19 07:05:40;;;;;;;6.32;3.67;;;;;;;28.47;45.04;101431.75;4181237;28;20045;-65
2022/09/19 07:07:44;;;;;;;7.13;4.30;;;;;;;28.47;45.32;101430.91;4180983;28;20045;-64
2022/09/19 07:09:45;;;;;;;7.87;3.93;;;;;;;28.48;45.08;101427.75;4180862;28;20040;-64
2022/09/19 07:11:49;;;;;;;5.78;4.40;;;;;;;28.48;44.83;101427.75;4181253;28;20048;-65
2022/09/19 07:13:50;;;;;;;6.33;3.37;;;;;;;28.49;45.00;101425.78;4191173;28;20070;-66
2022/09/19 07:15:52;;;;;;;5.63;4.05;;;;;;;28.49;45.42;101422.97;4185640;28;20348;-65
2022/09/19 07:17:54;;;;;;;3.92;3.53;;;;;;;28.24;45.13;101376.59;4184907;28;20040;-65
2022/09/19 07:19:56;;;;;;;3.90;3.50;;;;;;;28.49;45.33;101418.16;4190768;28;20094;-66
2022/09/19 07:21:57;;;;;;;4.78;3.95;;;;;;;28.48;45.00;101416.50;4180207;28;20075;-66
2022/09/19 07:24:04;;;;;;;6.75;4.45;;;;;;;28.48;45.44;101415.69;4179571;28;20033;-65
2022/09/19 07:26:11;;;;;;;3.88;3.47;;;;;;;28.47;45.10;101417.66;4185521;28;20044;-65
2022/09/19 07:28:17;;;;;;;3.97;3.67;;;;;;;28.49;44.88;101417.34;4197667;28;20549;-65
2022/09/19 07:30:21;;;;;;;5.97;3.55;;;;;;;28.49;45.09;101420.16;4180714;28;20490;-64
2022/09/19 07:32:22;;;;;;;5.97;4.05;;;;;;;28.48;45.35;101415.69;4180285;28;20098;-65
2022/09/19 07:34:25;;;;;;;4.50;3.85;;;;;;;28.49;45.64;101422.97;4187618;28;20037;-64
2022/09/19 07:36:27;;;;;;;4.13;3.72;;;;;;;28.47;45.25;101414.03;4196417;28;20032;-64
2022/09/19 07:38:31;;;;;;;5.28;3.67;;;;;;;28.36;45.75;101397.41;4183257;28;20049;-64
2022/09/19 07:40:35;;;;;;;5.55;4.13;;;;;;;28.43;45.79;101407.38;4180488;28;20029;-65
2022/09/19 07:42:36;;;;;;;4.15;3.60;;;;;;;28.46;45.32;101412.38;4179763;28;20436;-65
2022/09/19 07:44:37;;;;;;;5.13;3.47;;;;;;;28.48;45.20;101410.03;4179883;28;20041;-64
2022/09/19 07:47:26;;;;;;;4.55;3.17;;;;;;;28.49;45.43;101406.91;4180350;28;20439;-64
2022/09/19 07:49:00;;;;;;;4.68;3.53;;;;;;;28.50;45.24;101404.91;4180339;28;20450;-65
2022/09/19 07:51:05;;;;;;;4.18;3.50;;;;;;;28.48;45.36;101405.25;4190092;28;20101;-64
2022/09/19 07:53:10;;;;;;;5.50;4.10;;;;;;;28.49;45.21;101406.06;4194144;28;20117;-65
2022/09/19 07:55:11;;;;;;;;;;;;;;;28.49;45.26;101400.44;4180218;28;20078;-65
2022/09/19 07:57:12;;;;;;;4.03;3.65;;;;;;;28.56;45.03;101407.28;4180516;28;19959;-65
2022/09/19 07:59:13;;;;;;;5.20;3.65;;;;;;;28.52;45.18;101405.44;4180241;28;20033;-65
2022/09/19 08:01:15;;;;;;;3.97;3.45;;;;;;;28.53;45.07;101412.72;4183664;28;20049;-65
2022/09/19 08:03:18;;;;;;;5.30;4.25;;;;;;;28.53;45.29;101407.09;4180251;28;20431;-65
2022/09/19 08:05:19;;;;;;;3.75;3.38;;;;;;;28.52;45.19;101413.88;4179788;28;20427;-65
2022/09/19 08:07:20;;;;;;;5.05;3.95;;;;;;;28.51;45.26;101412.22;4180541;28;20037;-65
2022/09/19 08:09:21;;;;;;;4.05;3.45;;;;;;;28.50;45.28;101408.59;4180207;28;20041;-65
2022/09/19 08:11:23;;;;;;;4.93;3.25;;;;;;;28.49;45.22;101406.91;4183373;28;20551;-65
2022/09/19 08:13:24;;;;;;;4.00;3.60;;;;;;;27.88;45.37;101306.31;4182245;28;20484;-65
2022/09/19 08:15:29;;;;;;;5.10;3.83;;;;;;;28.40;45.51;101391.13;4185596;28;20048;-65
2022/09/19 08:17:32;;;;;;;3.58;3.28;;;;;;;28.49;45.36;101401.25;4194748;28;20078;-66
2022/09/19 08:19:33;;;;;;;4.13;3.72;;;;;;;28.36;45.15;101386.16;4189492;28;20099;-64
2022/09/19 08:21:35;;;;;;;5.32;4.07;;;;;;;28.50;45.23;101402.09;4196568;28;20044;-65
2022/09/19 08:23:36;;;;;;;4.72;3.85;;;;;;;28.50;45.33;101404.91;4186223;28;20056;-65
2022/09/19 08:25:46;;;;;;;3.58;3.28;;;;;;;28.49;45.51;101406.06;4196411;28;20036;-66
2022/09/19 08:27:51;;;;;;;5.55;4.15;;;;;;;28.38;45.55;101382.16;4187129;28;20177;-65
2022/09/19 08:29:52;;;;;;;3.97;3.35;;;;;;;28.48;45.66;101398.78;4195414;28;20078;-65
2022/09/19 08:31:53;;;;;;;4.97;3.60;;;;;;;28.47;46.08;101402.75;4189752;28;20041;-65
2022/09/19 08:33:55;;;;;;;4.82;3.58;;;;;;;28.44;46.10;101406.22;4192504;28;20045;-65
2022/09/19 08:35:59;;;;;;;4.82;3.40;;;;;;;28.44;45.81;101398.59;4182476;28;20573;-65
2022/09/19 08:38:00;;;;;;;6.28;4.07;;;;;;;28.45;46.03;101399.41;4183212;28;20053;-65
2022/09/19 08:40:19;;;;;;;4.60;3.40;;;;;;;28.34;46.38;101382.81;4185637;28;20033;-66
2022/09/19 08:42:30;;;;;;;4.70;3.60;;;;;;;28.43;46.04;101391.31;4192170;28;20553;-65
2022/09/19 08:44:40;;;;;;;3.90;3.40;;;;;;;28.44;46.28;101400.56;4199557;28;20044;-65
2022/09/19 08:46:59;;;;;;;4.75;3.97;;;;;;;28.41;46.48;101396.44;4187541;28;20040;-65
2022/09/19 08:49:27;;;;;;;6.28;3.53;;;;;;;28.43;46.46;101390.47;4183270;28;20123;-65
2022/09/19 08:51:59;;;;;;;6.00;3.85;;;;;;;28.43;46.25;101396.09;4183057;28;20095;-65
2022/09/19 08:54:30;;;;;;;3.90;3.50;;;;;;;28.38;46.45;101387.81;4195571;28;20557;-65
2022/09/19 08:56:35;;;;;;;4.22;3.25;;;;;;;28.47;46.11;101394.31;4197700;28;20117;-65
2022/09/19 08:58:45;;;;;;;7.15;3.90;;;;;;;28.44;46.52;101395.78;4189441;28;20443;-65
2022/09/19 09:00:47;;;;;;;3.88;3.47;;;;;;;28.45;46.34;101399.41;4181965;28;20480;-66
2022/09/19 09:02:52;;;;;;;4.20;3.80;;;;;;;28.45;45.85;101399.41;4181938;28;20103;-66
2022/09/19 09:04:54;;;;;;;4.13;3.63;;;;;;;28.45;45.81;101396.59;4197685;28;20094;-66
2022/09/19 09:07:16;;;;;;;3.95;3.17;;;;;;;28.45;46.03;101394.63;4198906;28;20314;-65
2022/09/19 09:09:37;;;;;;;4.55;4.00;;;;;;;28.45;46.27;101399.41;4198404;28;20090;-65
2022/09/19 09:12:14;;;;;;;3.75;3.38;;;;;;;28.44;46.29;101392.13;4199150;28;20040;-65
2022/09/19 09:14:29;;;;;;;4.28;3.88;;;;;;;28.44;46.52;101398.59;4199194;28;20106;-66
2022/09/19 09:16:47;;;;;;;4.85;4.35;;;;;;;28.43;46.11;101384.84;4199624;28;20048;-66
2022/09/19 09:19:21;;;;;;;3.47;3.17;;;;;;;28.44;46.14;101387.31;4183403;28;20404;-65
2022/09/19 09:21:49;;;;;;;4.65;3.25;;;;;;;28.47;46.39;101371.78;4182510;28;20103;-65
2022/09/19 09:23:59;;;;;;;4.43;3.65;;;;;;;28.47;45.67;101380.25;4182668;28;20049;-65
2022/09/19 09:26:22;;;;;;;4.97;3.80;;;;;;;28.47;45.94;101383.06;4181786;28;21235;-65
2022/09/19 09:28:49;;;;;;;4.03;3.60;;;;;;;28.49;45.77;101380.72;4198340;28;20098;-65
2022/09/19 09:31:07;;;;;;;4.47;3.88;;;;;;;28.49;45.54;101390.00;4189071;28;20121;-65
2022/09/19 09:33:21;;;;;;;4.60;3.70;;;;;;;28.51;45.79;101392.53;4198855;28;20056;-66
2022/09/19 09:35:34;;;;;;;4.07;3.70;;;;;;;28.48;45.43;101393.16;4187329;28;20041;-66
2022/09/19 09:37:46;;;;;;;4.05;3.63;;;;;;;28.51;45.70;101392.53;4182025;28;20094;-65
2022/09/19 09:43:06;;;;;;;4.00;3.60;;;;;;;28.52;45.31;101397.00;4188950;28;20091;-64
2022/09/19 09:45:23;;;;;;;4.18;3.78;;;;;;;28.49;45.49;101395.63;4193101;28;20037;-65
2022/09/19 09:47:59;;;;;;;3.72;3.40;;;;;;;28.50;45.75;101399.28;4193347;28;20044;-66
2022/09/19 09:50:24;;;;;;;4.00;3.60;;;;;;;28.49;45.62;101394.81;4171166;28;20118;-65
2022/09/19 09:53:10;;;;;;;3.80;3.50;;;;;;;28.50;45.44;101390.84;4181145;28;20546;-65
2022/09/19 09:58:27;;;;;;;3.60;3.30;;;;;;;28.33;45.77;101364.22;4183450;28;20111;-64
2022/09/19 10:03:36;;;;;;;4.30;3.70;;;;;;;28.47;45.87;101391.50;4182891;28;20102;-64
2022/09/19 10:05:46;;;;;;;4.50;3.75;;;;;;;28.49;45.61;101389.19;4192548;28;20442;-65